Time;durP1;ratioP1;P1;durP2;ratioP2;P2;SDS_P1;SDS_P2;PMS_P1;PMS_P2;Temp;Humidity;BMP_temperature;BMP_pressure;BME280_temperature;BME280_humidity;BME280_pressure;Samples;Min_cycle;Max_cycle;Signal;HPM_P1;HPM_P2
2023/08/04 00:00:19;;;;;;;8.47;4.07;;;;;;;16.72;100.00;99973.84;5084585;28;20206;-80
2023/08/04 00:02:46;;;;;;;7.73;4.10;;;;;;;16.71;100.00;99969.47;5085829;28;20204;-81
2023/08/04 00:05:14;;;;;;;10.03;4.43;;;;;;;16.69;100.00;99971.47;5091028;28;20206;-80
2023/08/04 00:07:43;;;;;;;5.67;3.73;;;;;;;16.65;100.00;99971.78;5081579;28;20237;-81
2023/08/04 00:10:10;;;;;;;7.00;4.60;;;;;;;16.66;100.00;99976.16;5087193;28;20800;-81
2023/08/04 00:12:37;;;;;;;7.03;4.13;;;;;;;16.66;100.00;99978.84;5089032;28;20232;-81
2023/08/04 00:15:04;;;;;;;9.70;3.67;;;;;;;16.66;100.00;99983.38;5089115;28;20204;-80
2023/08/04 00:17:32;;;;;;;9.07;4.87;;;;;;;16.64;100.00;99983.53;5090485;28;20293;-80
2023/08/04 00:19:59;;;;;;;10.97;5.27;;;;;;;16.64;100.00;99988.06;5081824;28;20212;-81
2023/08/04 00:22:26;;;;;;;10.57;4.60;;;;;;;16.63;100.00;99986.38;5092801;28;20195;-80
2023/08/04 00:24:53;;;;;;;5.70;4.13;;;;;;;16.62;100.00;99988.19;5083280;28;20208;-80
2023/08/04 00:27:20;;;;;;;11.17;4.40;;;;;;;16.58;100.00;99996.72;5088505;28;20225;-81
2023/08/04 00:29:46;;;;;;;10.43;4.57;;;;;;;16.56;100.00;100004.06;5089132;28;20211;-81
2023/08/04 00:32:13;;;;;;;6.40;3.77;;;;;;;16.53;100.00;100001.69;5091292;28;20259;-81
2023/08/04 00:34:39;;;;;;;7.17;4.80;;;;;;;16.49;100.00;100003.81;5090771;28;20207;-81
2023/08/04 00:37:06;;;;;;;12.50;4.60;;;;;;;16.45;100.00;100007.81;5090017;28;20211;-81
2023/08/04 00:39:34;;;;;;;10.57;4.23;;;;;;;16.44;100.00;100008.81;5078850;28;20208;-81
2023/08/04 00:42:00;;;;;;;9.50;4.47;;;;;;;16.43;100.00;100019.72;5082218;28;20212;-81
2023/08/04 00:44:27;;;;;;;7.93;3.90;;;;;;;16.40;100.00;100015.47;5080665;28;20202;-80
2023/08/04 00:46:53;;;;;;;10.87;4.10;;;;;;;16.40;100.00;100023.53;5093778;28;20212;-80
2023/08/04 00:49:21;;;;;;;10.27;3.47;;;;;;;16.38;100.00;100022.00;5082403;28;20198;-81
2023/08/04 00:51:48;;;;;;;7.67;3.57;;;;;;;16.32;100.00;100021.59;5087491;28;20224;-80
2023/08/04 00:54:15;;;;;;;7.40;3.47;;;;;;;16.28;100.00;100022.91;5086907;28;20683;-81
2023/08/04 00:56:43;;;;;;;6.13;3.90;;;;;;;16.25;100.00;100022.34;5091658;28;20577;-80
2023/08/04 00:59:09;;;;;;;6.23;3.73;;;;;;;16.24;100.00;100026.88;5089370;28;20250;-80
2023/08/04 01:01:36;;;;;;;7.10;3.60;;;;;;;16.21;100.00;100031.69;5090518;28;20208;-80
2023/08/04 01:04:02;;;;;;;16.40;3.57;;;;;;;16.19;100.00;100029.16;5091528;28;20211;-81
2023/08/04 01:06:38;;;;;;;6.63;3.20;;;;;;;16.18;100.00;100035.53;5088931;28;20599;-81
2023/08/04 01:09:10;;;;;;;9.43;4.00;;;;;;;16.16;100.00;100044.72;5077932;28;20711;-80
2023/08/04 01:11:46;;;;;;;8.10;3.27;;;;;;;16.15;100.00;100033.13;5085173;28;20237;-81
2023/08/04 01:14:16;;;;;;;6.83;3.50;;;;;;;16.17;100.00;100035.66;5086308;28;20212;-80
2023/08/04 01:16:42;;;;;;;9.73;3.57;;;;;;;16.17;100.00;100044.56;5091312;28;20648;-80
2023/08/04 01:19:08;;;;;;;7.97;3.67;;;;;;;16.16;100.00;100034.81;5093351;28;20703;-80
2023/08/04 01:21:41;;;;;;;9.13;3.60;;;;;;;16.17;100.00;100046.41;5084627;28;20206;-81
2023/08/04 01:24:08;;;;;;;5.63;3.23;;;;;;;16.16;100.00;100059.00;5091326;28;20203;-81
2023/08/04 01:26:37;;;;;;;7.33;3.23;;;;;;;16.15;100.00;100057.31;5084763;28;20206;-81
2023/08/04 01:29:04;;;;;;;7.07;3.83;;;;;;;16.17;100.00;100067.91;5087613;28;20229;-80
2023/08/04 01:31:30;;;;;;;7.53;3.70;;;;;;;16.15;100.00;100060.00;5079197;28;20235;-81
2023/08/04 01:33:57;;;;;;;6.07;3.00;;;;;;;16.14;100.00;100062.81;5089818;28;20216;-81
2023/08/04 01:36:24;;;;;;;7.87;3.87;;;;;;;16.15;100.00;100064.53;5088081;28;20222;-81
2023/08/04 01:38:51;;;;;;;4.97;3.37;;;;;;;16.12;100.00;100071.03;5083885;28;20234;-80
2023/08/04 01:41:18;;;;;;;6.20;3.73;;;;;;;16.12;100.00;100072.91;5089627;28;20216;-81
2023/08/04 01:43:44;;;;;;;10.73;4.10;;;;;;;16.13;100.00;100074.56;5086563;28;20694;-81
2023/08/04 01:46:11;;;;;;;8.37;3.80;;;;;;;16.14;100.00;100087.00;5090109;28;20714;-80
2023/08/04 01:48:37;;;;;;;9.00;4.00;;;;;;;16.14;100.00;100087.00;5095886;28;20839;-80
2023/08/04 01:51:04;;;;;;;7.10;3.30;;;;;;;16.12;100.00;100084.47;5087690;28;20599;-81
2023/08/04 01:53:30;;;;;;;5.90;3.33;;;;;;;16.12;100.00;100086.34;5076626;28;20649;-80
2023/08/04 01:55:58;;;;;;;5.83;3.67;;;;;;;16.10;100.00;100088.31;5078907;28;20196;-80
2023/08/04 01:58:24;;;;;;;10.47;4.20;;;;;;;16.10;100.00;100085.63;5086135;28;20688;-80
2023/08/04 02:00:51;;;;;;;3.93;3.40;;;;;;;16.09;100.00;100095.53;5087507;28;20202;-81
2023/08/04 02:03:17;;;;;;;10.70;4.20;;;;;;;16.07;100.00;100099.34;5085362;28;20206;-80
2023/08/04 02:05:46;;;;;;;10.13;4.30;;;;;;;16.06;100.00;100093.13;5091217;28;20221;-81
2023/08/04 02:08:12;;;;;;;9.13;3.97;;;;;;;16.06;100.00;100095.81;5084465;28;20242;-81
2023/08/04 02:10:39;;;;;;;7.50;3.80;;;;;;;16.05;100.00;100096.81;5087294;28;20207;-80
2023/08/04 02:13:06;;;;;;;7.90;4.03;;;;;;;16.04;100.00;100094.25;5089181;28;20226;-81
2023/08/04 02:15:33;;;;;;;13.83;4.90;;;;;;;16.05;100.00;100106.69;5081260;28;20218;-81
2023/08/04 02:17:59;;;;;;;6.50;4.17;;;;;;;16.06;100.00;100105.72;5083906;28;20242;-81
2023/08/04 02:20:26;;;;;;;6.67;4.23;;;;;;;16.04;100.00;100108.53;5092677;28;20207;-81
2023/08/04 02:22:52;;;;;;;8.60;4.23;;;;;;;16.04;100.00;100100.47;5087025;28;20205;-80
2023/08/04 02:25:19;;;;;;;8.07;4.73;;;;;;;16.04;100.00;100107.69;5085216;28;20207;-80
2023/08/04 02:27:45;;;;;;;4.93;3.93;;;;;;;16.00;100.00;100123.25;5085407;28;20233;-80
2023/08/04 02:30:13;;;;;;;10.87;4.97;;;;;;;15.96;100.00;100120.00;5081472;28;20209;-79
2023/08/04 02:32:40;;;;;;;10.43;5.03;;;;;;;15.96;100.00;100121.81;5085779;28;20262;-80
2023/08/04 02:35:07;;;;;;;10.10;4.83;;;;;;;15.94;100.00;100116.59;5084301;28;20203;-80
2023/08/04 02:37:34;;;;;;;7.03;4.17;;;;;;;15.95;100.00;100122.81;5090943;28;20232;-81
2023/08/04 02:40:00;;;;;;;5.87;3.83;;;;;;;15.93;100.00;100124.81;5084339;28;20208;-80
2023/08/04 02:42:26;;;;;;;9.67;4.17;;;;;;;15.91;100.00;100122.28;5093554;28;20674;-81
2023/08/04 02:44:54;;;;;;;7.27;4.87;;;;;;;15.90;100.00;100123.28;5084284;28;20732;-81
2023/08/04 02:47:22;;;;;;;8.27;4.83;;;;;;;15.89;100.00;100129.63;5088179;28;20268;-80
2023/08/04 02:49:49;;;;;;;7.73;4.33;;;;;;;15.86;100.00;100124.53;5092454;28;20210;-80
2023/08/04 02:52:16;;;;;;;6.63;3.90;;;;;;;15.85;100.00;100128.22;5093464;28;20231;-81
2023/08/04 02:54:42;;;;;;;5.97;4.03;;;;;;;15.83;100.00;100119.44;5083518;28;20198;-81
2023/08/04 02:57:09;;;;;;;8.43;3.93;;;;;;;15.82;100.00;100127.66;5087830;28;20195;-81
2023/08/04 02:59:36;;;;;;;7.57;4.23;;;;;;;15.80;100.00;100129.63;5088128;28;20219;-80
2023/08/04 03:02:02;;;;;;;7.83;4.50;;;;;;;15.78;100.00;100127.09;5090307;28;20289;-80
2023/08/04 03:04:30;;;;;;;11.10;4.53;;;;;;;15.76;100.00;100134.47;5082291;28;20215;-80
2023/08/04 03:06:57;;;;;;;7.90;4.87;;;;;;;15.76;100.00;100137.16;5087460;28;20209;-80
2023/08/04 03:09:23;;;;;;;6.63;4.50;;;;;;;15.75;100.00;100137.28;5080561;28;20231;-81
2023/08/04 03:11:50;;;;;;;6.17;4.30;;;;;;;15.72;100.00;100146.47;5092360;28;20220;-80
2023/08/04 03:14:16;;;;;;;8.33;3.90;;;;;;;15.71;100.00;100150.13;5089866;28;20203;-80
2023/08/04 03:16:43;;;;;;;6.73;3.90;;;;;;;15.71;100.00;100146.59;5089518;28;20201;-80
2023/08/04 03:19:09;;;;;;;6.97;4.17;;;;;;;15.72;100.00;100156.34;5091482;28;20227;-80
2023/08/04 03:21:37;;;;;;;7.73;4.10;;;;;;;15.71;100.00;100151.97;5092793;28;20206;-80
2023/08/04 03:24:04;;;;;;;11.33;4.00;;;;;;;15.70;100.00;100161.88;5090815;28;20202;-81
2023/08/04 03:26:30;;;;;;;7.10;3.67;;;;;;;15.69;100.00;100160.16;5092606;28;20572;-80
2023/08/04 03:28:57;;;;;;;9.50;4.20;;;;;;;15.70;100.00;100167.22;5093147;28;20228;-80
2023/08/04 03:31:23;;;;;;;7.20;3.73;;;;;;;15.70;100.00;100175.28;5092614;28;20218;-82
2023/08/04 03:33:50;;;;;;;8.77;3.50;;;;;;;15.70;100.00;100177.13;5084677;28;20254;-81
2023/08/04 03:36:16;;;;;;;9.77;3.63;;;;;;;15.69;100.00;100186.16;5084958;28;20197;-81
2023/08/04 03:38:47;;;;;;;11.50;4.10;;;;;;;15.69;100.00;100180.78;5085834;28;20238;-81
2023/08/04 03:41:13;;;;;;;9.57;3.83;;;;;;;15.68;100.00;100185.31;5090084;28;20203;-81
2023/08/04 03:43:40;;;;;;;4.83;3.40;;;;;;;15.68;100.00;100189.84;5092813;28;20682;-80
2023/08/04 03:46:06;;;;;;;8.27;3.70;;;;;;;15.68;100.00;100198.75;5092622;28;20833;-80
2023/08/04 03:48:33;;;;;;;9.10;3.40;;;;;;;15.67;100.00;100190.81;5089374;28;20232;-80
2023/08/04 03:50:59;;;;;;;6.10;3.83;;;;;;;15.67;100.00;100191.69;5096021;28;20216;-81
2023/08/04 03:53:25;;;;;;;6.43;3.23;;;;;;;15.72;100.00;100194.78;5082854;28;20237;-80
2023/08/04 03:55:53;;;;;;;8.97;3.67;;;;;;;15.69;100.00;100196.91;5082211;28;20215;-80
2023/08/04 03:58:20;;;;;;;6.70;3.43;;;;;;;15.71;100.00;100205.66;5092378;28;20223;-80
2023/08/04 04:00:46;;;;;;;7.73;3.57;;;;;;;15.69;100.00;100205.81;5093032;28;20216;-79
2023/08/04 04:03:13;;;;;;;4.90;3.23;;;;;;;15.67;100.00;100210.47;5093459;28;20199;-80
2023/08/04 04:05:39;;;;;;;9.17;3.63;;;;;;;15.67;100.00;100212.31;5092539;28;20202;-80
2023/08/04 04:08:06;;;;;;;7.67;3.53;;;;;;;15.68;100.00;100211.31;5089642;28;20238;-80
2023/08/04 04:10:32;;;;;;;8.53;3.70;;;;;;;15.70;100.00;100215.56;5091982;28;20199;-81
2023/08/04 04:13:01;;;;;;;6.47;4.00;;;;;;;15.71;100.00;100214.56;5093048;28;20233;-81
2023/08/04 04:15:28;;;;;;;10.33;3.87;;;;;;;15.67;100.00;100213.16;5088244;28;20212;-81
2023/08/04 04:17:54;;;;;;;8.17;4.33;;;;;;;15.65;100.00;100216.97;5085263;28;20594;-80
2023/08/04 04:20:21;;;;;;;6.80;4.57;;;;;;;15.67;100.00;100214.97;5084997;28;20612;-81
2023/08/04 04:22:47;;;;;;;9.23;4.07;;;;;;;15.66;100.00;100215.97;5086643;28;20641;-80
2023/08/04 04:25:14;;;;;;;8.23;4.10;;;;;;;15.66;100.00;100219.50;5094122;28;20216;-81
2023/08/04 04:27:40;;;;;;;7.07;3.97;;;;;;;15.65;100.00;100217.81;5094245;28;20233;-81
2023/08/04 04:30:09;;;;;;;5.63;4.13;;;;;;;15.65;100.00;100220.50;5091227;28;20218;-81
2023/08/04 04:32:35;;;;;;;6.17;3.77;;;;;;;15.65;100.00;100212.44;5091880;28;20233;-81
2023/08/04 04:35:02;;;;;;;7.53;3.77;;;;;;;15.66;100.00;100222.19;5088687;28;20210;-80
2023/08/04 04:37:29;;;;;;;8.97;4.53;;;;;;;15.66;100.00;100218.66;5087033;28;20223;-80
2023/08/04 04:39:55;;;;;;;9.40;3.73;;;;;;;15.67;100.00;100223.03;5086528;28;20200;-80
2023/08/04 04:42:22;;;;;;;9.57;3.70;;;;;;;15.67;100.00;100226.56;5085837;28;20234;-80
2023/08/04 04:44:48;;;;;;;7.03;4.07;;;;;;;15.69;100.00;100221.06;5088920;28;20203;-79
2023/08/04 04:47:16;;;;;;;5.90;3.70;;;;;;;15.71;100.00;100229.84;5079989;28;20703;-81
2023/08/04 04:49:42;;;;;;;9.33;3.73;;;;;;;15.70;100.00;100228.13;5086703;28;20203;-81
2023/08/04 04:52:15;;;;;;;7.77;4.50;;;;;;;15.68;100.00;100225.59;5090202;28;20218;-81
2023/08/04 04:54:41;;;;;;;4.90;3.67;;;;;;;15.71;100.00;100235.19;5083505;28;20196;-81
2023/08/04 04:57:07;;;;;;;6.40;4.00;;;;;;;15.72;100.00;100232.38;5089616;28;20209;-81
2023/08/04 04:59:34;;;;;;;11.07;4.07;;;;;;;15.74;100.00;100226.88;5077809;28;20207;-81
2023/08/04 05:02:00;;;;;;;6.97;3.73;;;;;;;15.73;100.00;100234.06;5088611;28;20575;-81
2023/08/04 05:04:28;;;;;;;8.77;3.93;;;;;;;15.69;100.00;100229.97;5090888;28;20196;-81
2023/08/04 05:06:55;;;;;;;8.20;4.00;;;;;;;15.70;100.00;100231.66;5088605;28;20211;-81
2023/08/04 05:09:21;;;;;;;9.30;3.90;;;;;;;15.71;100.00;100228.00;5092327;28;20203;-82
2023/08/04 05:11:48;;;;;;;8.07;4.10;;;;;;;15.73;100.00;100233.22;5095282;28;20298;-81
2023/08/04 05:14:14;;;;;;;8.70;4.00;;;;;;;15.72;100.00;100240.44;5088844;28;20224;-81
2023/08/04 05:16:42;;;;;;;8.10;4.87;;;;;;;15.72;100.00;100242.28;5087890;28;20208;-81
2023/08/04 05:19:08;;;;;;;7.63;4.53;;;;;;;15.72;100.00;100250.31;5089785;28;20227;-80
2023/08/04 05:21:36;;;;;;;7.73;4.30;;;;;;;15.72;100.00;100248.50;5087313;28;20209;-80
2023/08/04 05:24:03;;;;;;;7.07;3.87;;;;;;;15.76;100.00;100247.22;5080888;28;20199;-81
2023/08/04 05:26:29;;;;;;;7.77;4.10;;;;;;;15.78;100.00;100250.59;5084542;28;20210;-81
2023/08/04 05:28:56;;;;;;;5.90;4.00;;;;;;;15.81;100.00;100244.94;5088106;28;20623;-81
2023/08/04 05:31:22;;;;;;;8.73;4.13;;;;;;;15.82;100.00;100253.84;5090473;28;20211;-81
2023/08/04 05:33:49;;;;;;;7.60;3.80;;;;;;;15.84;100.00;100258.09;5089116;28;20230;-81
2023/08/04 05:36:15;;;;;;;5.00;3.70;;;;;;;15.88;100.00;100250.63;5092174;28;20196;-81
2023/08/04 05:38:44;;;;;;;7.30;4.03;;;;;;;15.90;100.00;100249.50;5080881;28;20216;-81
2023/08/04 05:41:10;;;;;;;4.93;3.73;;;;;;;15.87;100.00;100263.19;5082612;28;20299;-80
2023/08/04 05:43:37;;;;;;;9.57;4.03;;;;;;;15.89;100.00;100258.53;5086943;28;20205;-81
2023/08/04 05:46:04;;;;;;;10.20;4.10;;;;;;;15.89;100.00;100263.06;5091253;28;20213;-82
2023/08/04 05:48:31;;;;;;;7.00;4.03;;;;;;;15.89;100.00;100269.28;5087504;28;20258;-81
2023/08/04 05:50:57;;;;;;;8.07;3.90;;;;;;;15.89;100.00;100261.22;5087584;28;20230;-82
2023/08/04 05:53:24;;;;;;;6.77;3.63;;;;;;;15.91;100.00;100270.00;5082267;28;20325;-80
2023/08/04 05:55:52;;;;;;;6.30;3.80;;;;;;;15.90;100.00;100270.13;5080416;28;20213;-81
2023/08/04 05:58:18;;;;;;;7.10;4.20;;;;;;;15.92;100.00;100277.06;5084199;28;20231;-80
2023/08/04 06:00:45;;;;;;;9.63;3.93;;;;;;;15.94;100.00;100277.75;5084298;28;20204;-80
2023/08/04 06:03:12;;;;;;;7.80;3.90;;;;;;;16.00;100.00;100276.34;5095158;28;20231;-81
2023/08/04 06:05:38;;;;;;;7.70;4.07;;;;;;;16.04;100.00;100282.28;5085408;28;20209;-81
2023/08/04 06:08:05;;;;;;;8.63;4.63;;;;;;;16.05;100.00;100284.84;5089790;28;20760;-81
2023/08/04 06:10:32;;;;;;;6.43;3.90;;;;;;;16.08;100.00;100283.72;5086850;28;20677;-81
2023/08/04 06:13:02;;;;;;;6.33;3.77;;;;;;;16.13;100.00;100286.78;5079429;28;20232;-81
2023/08/04 06:15:28;;;;;;;10.37;3.90;;;;;;;16.13;100.00;100284.97;5085358;28;20288;-81
2023/08/04 06:17:55;;;;;;;6.93;4.07;;;;;;;16.17;100.00;100290.91;5088777;28;20578;-81
2023/08/04 06:20:23;;;;;;;7.00;3.80;;;;;;;16.17;100.00;100288.22;5083842;28;20207;-81
2023/08/04 06:22:49;;;;;;;7.07;3.83;;;;;;;16.18;100.00;100284.53;5080594;28;20646;-80
2023/08/04 06:25:16;;;;;;;9.13;4.30;;;;;;;16.20;100.00;100286.09;5086799;28;20200;-81
2023/08/04 06:27:42;;;;;;;5.73;3.30;;;;;;;16.24;100.00;100283.97;5090074;28;20228;-82
2023/08/04 06:30:11;;;;;;;6.87;3.60;;;;;;;16.26;100.00;100282.00;5083855;28;20244;-82
2023/08/04 06:32:37;;;;;;;7.03;3.50;;;;;;;16.27;100.00;100284.56;5086072;28;20219;-80
2023/08/04 06:35:04;;;;;;;4.43;3.43;;;;;;;16.30;100.00;100294.16;5089606;28;20225;-81
2023/08/04 06:37:30;;;;;;;4.53;3.10;;;;;;;16.33;100.00;100293.88;5088212;28;20227;-81
2023/08/04 06:39:57;;;;;;;6.67;3.37;;;;;;;16.39;100.00;100300.50;5087826;28;20699;-80
2023/08/04 06:42:23;;;;;;;8.10;3.50;;;;;;;16.41;100.00;100304.75;5087634;28;20218;-81
2023/08/04 06:44:50;;;;;;;6.27;3.03;;;;;;;16.44;100.00;100301.78;5087099;28;20202;-81
2023/08/04 06:47:18;;;;;;;5.07;3.07;;;;;;;16.49;100.00;100304.88;5087153;28;20225;-82
2023/08/04 06:49:44;;;;;;;10.00;3.33;;;;;;;16.53;100.00;100317.03;5087880;28;20614;-81
2023/08/04 06:52:11;;;;;;;6.57;3.20;;;;;;;16.57;99.61;100313.09;5087935;28;20557;-82
2023/08/04 06:54:38;;;;;;;7.83;3.07;;;;;;;16.64;99.34;100308.03;5087377;28;20231;-81
2023/08/04 06:57:05;;;;;;;4.93;3.20;;;;;;;16.69;99.20;100308.41;5086499;28;20215;-81
2023/08/04 06:59:32;;;;;;;5.93;3.07;;;;;;;16.72;98.65;100313.50;5083156;28;20209;-81
2023/08/04 07:01:58;;;;;;;5.37;2.77;;;;;;;16.75;97.59;100320.44;5090392;28;20219;-81
2023/08/04 07:04:26;;;;;;;8.17;3.77;;;;;;;16.79;97.36;100321.88;5077432;28;20215;-81
2023/08/04 07:06:54;;;;;;;4.93;2.83;;;;;;;16.82;97.18;100325.13;5086000;28;21459;-81
2023/08/04 07:09:20;;;;;;;4.73;2.80;;;;;;;16.88;96.50;100331.72;5082242;28;20223;-81
2023/08/04 07:11:47;;;;;;;7.30;3.10;;;;;;;16.92;96.07;100334.00;5088285;28;20211;-81
2023/08/04 07:14:13;;;;;;;8.40;2.67;;;;;;;16.97;95.74;100342.50;5085018;28;20220;-82
2023/08/04 07:16:40;;;;;;;7.00;3.07;;;;;;;17.01;94.93;100340.38;5085224;28;20204;-81
2023/08/04 07:19:06;;;;;;;5.83;2.73;;;;;;;17.02;94.00;100350.09;5082985;28;20228;-81
2023/08/04 07:21:34;;;;;;;7.30;2.50;;;;;;;17.02;93.92;100350.94;5084668;28;20208;-81
2023/08/04 07:24:00;;;;;;;6.63;2.60;;;;;;;17.06;93.93;100361.44;5083256;28;20212;-81
2023/08/04 07:26:27;;;;;;;5.27;2.53;;;;;;;17.10;94.68;100361.00;5086365;28;20290;-81
2023/08/04 07:28:54;;;;;;;7.80;2.87;;;;;;;17.14;94.53;100362.41;5084996;28;20695;-81
2023/08/04 07:31:21;;;;;;;5.13;3.23;;;;;;;17.19;93.44;100362.81;5087924;28;20203;-81
2023/08/04 07:33:47;;;;;;;5.80;2.63;;;;;;;17.23;92.48;100364.22;5086180;28;20241;-81
2023/08/04 07:36:14;;;;;;;4.70;2.47;;;;;;;17.28;92.77;100364.63;5082358;28;20214;-80
2023/08/04 07:38:42;;;;;;;4.50;2.50;;;;;;;17.33;92.43;100364.19;5083119;28;20578;-81
2023/08/04 07:41:09;;;;;;;4.77;2.70;;;;;;;17.34;91.96;100365.88;5089276;28;20215;-81
2023/08/04 07:43:35;;;;;;;6.53;2.37;;;;;;;17.40;91.54;100367.97;5085890;28;20206;-81
2023/08/04 07:46:02;;;;;;;5.97;2.43;;;;;;;17.44;91.41;100373.91;5082670;28;20301;-81
2023/08/04 07:48:29;;;;;;;7.97;3.13;;;;;;;17.48;91.13;100372.63;5094446;28;20219;-81
2023/08/04 07:50:55;;;;;;;6.13;3.00;;;;;;;17.52;90.52;100377.56;5089919;28;20207;-81
2023/08/04 07:53:22;;;;;;;7.60;3.10;;;;;;;17.54;90.01;100377.44;5089974;28;20202;-82
2023/08/04 07:55:56;;;;;;;3.47;2.67;;;;;;;17.61;89.73;100371.28;5089407;28;20206;-81
2023/08/04 07:58:23;;;;;;;7.23;2.50;;;;;;;17.65;90.38;100377.25;5087834;28;20249;-82
2023/08/04 08:00:49;;;;;;;4.23;2.73;;;;;;;17.72;90.32;100385.59;5089294;28;20205;-81
2023/08/04 08:03:16;;;;;;;5.57;2.33;;;;;;;17.74;88.96;100389.81;5080167;28;20225;-82
2023/08/04 08:05:42;;;;;;;5.17;2.53;;;;;;;17.79;87.86;100386.69;5088945;28;20674;-81
2023/08/04 08:08:09;;;;;;;3.87;2.40;;;;;;;17.83;87.84;100383.53;5090563;28;20595;-82
2023/08/04 08:10:35;;;;;;;6.53;2.50;;;;;;;17.89;87.50;100388.34;5092010;28;20660;-81
2023/08/04 08:13:03;;;;;;;3.70;2.30;;;;;;;17.97;86.92;100392.97;5087387;28;20243;-81
2023/08/04 08:15:30;;;;;;;7.07;2.43;;;;;;;18.07;87.41;100391.06;5087102;28;20235;-80
2023/08/04 08:17:56;;;;;;;5.27;2.40;;;;;;;18.17;86.75;100397.22;5082090;28;20231;-81
2023/08/04 08:20:22;;;;;;;8.97;2.93;;;;;;;18.24;85.78;100403.72;5084335;28;20204;-81
2023/08/04 08:22:49;;;;;;;7.33;2.10;;;;;;;18.33;85.29;100407.34;5084904;28;20200;-81
2023/08/04 08:25:15;;;;;;;4.00;2.10;;;;;;;18.38;83.10;100399.66;5093660;28;20200;-82
2023/08/04 08:27:42;;;;;;;5.60;2.10;;;;;;;18.43;84.43;100402.75;5087768;28;20229;-81
2023/08/04 08:30:11;;;;;;;3.77;1.77;;;;;;;18.53;83.78;100410.75;5082278;28;20201;-81
2023/08/04 08:32:37;;;;;;;2.63;1.83;;;;;;;18.57;82.78;100404.91;5092446;28;20563;-81
2023/08/04 08:35:05;;;;;;;4.77;2.37;;;;;;;18.64;82.16;100405.97;5086252;28;20234;-81
2023/08/04 08:37:31;;;;;;;3.23;2.20;;;;;;;18.71;81.36;100412.47;5089675;28;20230;-82
2023/08/04 08:39:58;;;;;;;3.93;1.90;;;;;;;18.78;80.45;100410.00;5084053;28;20210;-81
2023/08/04 08:42:24;;;;;;;4.07;2.10;;;;;;;18.81;78.14;100416.94;5088685;28;20208;-82
2023/08/04 08:44:51;;;;;;;2.67;1.80;;;;;;;18.82;77.25;100418.59;5090621;28;20212;-82
2023/08/04 08:47:21;;;;;;;5.20;2.10;;;;;;;18.88;77.50;100415.31;5084503;28;20241;-82
2023/08/04 08:49:52;;;;;;;3.07;2.00;;;;;;;18.94;76.73;100420.09;5084826;28;20208;-83
2023/08/04 08:52:21;;;;;;;6.43;1.67;;;;;;;19.00;77.08;100427.53;5092305;28;20203;-81
2023/08/04 08:54:49;;;;;;;5.20;2.13;;;;;;;19.10;77.33;100422.06;5090564;28;20226;-81
2023/08/04 08:57:16;;;;;;;3.73;1.50;;;;;;;19.18;77.73;100431.03;5083070;28;20664;-81
2023/08/04 08:59:43;;;;;;;4.43;1.70;;;;;;;19.23;75.48;100434.13;5086935;28;20199;-82
2023/08/04 09:02:10;;;;;;;2.93;1.73;;;;;;;19.27;75.15;100442.78;5085897;28;20400;-81
2023/08/04 09:04:38;;;;;;;4.53;1.80;;;;;;;19.29;75.23;100438.91;5085336;28;20196;-82
2023/08/04 09:07:05;;;;;;;3.63;1.57;;;;;;;19.31;74.67;100431.50;5090688;28;20596;-81
2023/08/04 09:09:33;;;;;;;3.57;1.47;;;;;;;19.32;73.07;100432.34;5088086;28;20215;-81
2023/08/04 09:12:00;;;;;;;4.63;1.90;;;;;;;19.36;73.35;100431.84;5089557;28;20227;-81
2023/08/04 09:14:26;;;;;;;3.67;1.53;;;;;;;19.41;73.27;100432.22;5083182;28;20234;-81
2023/08/04 09:16:53;;;;;;;2.37;1.40;;;;;;;19.51;72.05;100436.72;5090690;28;20207;-80
2023/08/04 09:19:19;;;;;;;2.97;1.80;;;;;;;19.59;71.29;100434.06;5085795;28;20251;-81
2023/08/04 09:21:57;;;;;;;3.65;1.02;;;;;;;19.66;70.23;100432.41;5090992;28;20685;-81
2023/08/04 09:24:24;;;;;;;3.10;1.38;;;;;;;19.71;68.91;100440.84;5076822;28;20287;-81
2023/08/04 09:26:51;;;;;;;5.10;1.30;;;;;;;19.75;69.18;100437.69;5086484;28;20212;-81
2023/08/04 09:29:17;;;;;;;4.57;1.17;;;;;;;19.81;69.07;100430.78;5077639;28;20706;-82
2023/08/04 09:31:48;;;;;;;2.65;1.33;;;;;;;19.88;68.39;100434.56;5079240;28;20796;-81
2023/08/04 09:34:14;;;;;;;2.15;1.27;;;;;;;19.96;68.01;100425.63;5082738;28;20231;-81
2023/08/04 09:36:44;;;;;;;3.38;1.40;;;;;;;20.05;68.08;100427.34;5087396;28;20595;-81
2023/08/04 09:39:12;;;;;;;2.47;1.10;;;;;;;20.21;68.37;100427.41;5080137;28;20228;-81
2023/08/04 09:41:43;;;;;;;3.88;1.17;;;;;;;20.35;67.09;100434.88;5087810;28;20200;-83
2023/08/04 09:44:10;;;;;;;2.78;0.90;;;;;;;20.45;65.86;100423.94;5089131;28;20212;-82
2023/08/04 09:46:39;;;;;;;3.50;1.50;;;;;;;20.53;66.06;100429.38;5083411;28;20200;-82
2023/08/04 09:49:06;;;;;;;3.00;1.42;;;;;;;20.59;65.72;100423.31;5091799;28;20590;-83
2023/08/04 09:51:39;;;;;;;2.08;0.95;;;;;;;20.62;64.08;100431.06;5079426;28;20254;-81
2023/08/04 09:54:06;;;;;;;2.33;1.05;;;;;;;20.60;64.26;100429.56;5083804;28;20294;-81
2023/08/04 09:56:34;;;;;;;1.73;1.27;;;;;;;20.59;64.23;100434.13;5091052;28;20208;-81
2023/08/04 09:59:00;;;;;;;2.38;1.10;;;;;;;20.51;63.89;100423.28;5086381;28;20235;-81
2023/08/04 10:01:27;;;;;;;2.72;1.00;;;;;;;20.52;65.57;100433.09;5087896;28;20673;-80
2023/08/04 10:03:57;;;;;;;3.20;1.35;;;;;;;20.56;65.63;100429.03;5081511;28;20209;-81
2023/08/04 10:06:24;;;;;;;3.25;1.23;;;;;;;20.52;65.30;100427.69;5089705;28;20703;-82
2023/08/04 10:08:53;;;;;;;3.70;1.30;;;;;;;20.49;65.04;100428.00;5084489;28;20229;-81
2023/08/04 10:11:20;;;;;;;3.75;1.52;;;;;;;20.53;65.43;100439.34;5089308;28;20640;-81
2023/08/04 10:13:52;;;;;;;5.00;1.50;;;;;;;20.54;66.03;100435.63;5090254;28;20653;-81
2023/08/04 10:16:19;;;;;;;2.08;1.15;;;;;;;20.59;66.42;100431.41;5083743;28;20227;-83
2023/08/04 10:18:47;;;;;;;4.90;1.40;;;;;;;20.63;66.38;100431.91;5089848;28;20227;-82
2023/08/04 10:21:14;;;;;;;3.13;1.63;;;;;;;20.65;66.60;100427.19;5081610;28;20596;-82
2023/08/04 10:23:41;;;;;;;3.42;1.35;;;;;;;20.66;67.02;100440.53;5085375;28;20204;-81
2023/08/04 10:26:11;;;;;;;2.55;1.48;;;;;;;20.66;66.23;100434.28;5081272;28;20208;-80
2023/08/04 10:29:01;;;;;;;4.07;1.35;;;;;;;20.65;66.71;100441.56;5086988;28;20699;-81
2023/08/04 10:31:44;;;;;;;4.10;1.55;;;;;;;20.61;65.56;100440.19;5084321;28;20200;-81
2023/08/04 10:34:19;;;;;;;3.83;1.10;;;;;;;20.58;65.08;100434.28;5088046;28;20676;-82
2023/08/04 10:37:14;;;;;;;2.50;1.38;;;;;;;20.60;65.71;100445.78;5087584;28;20214;-81
2023/08/04 10:39:43;;;;;;;1.92;1.38;;;;;;;20.64;65.55;100447.97;5064628;28;20218;-83
2023/08/04 10:42:21;;;;;;;3.42;1.23;;;;;;;20.74;65.29;100456.81;5082774;28;20565;-82
2023/08/04 10:44:52;;;;;;;1.20;1.10;;;;;;;20.87;65.11;100448.19;5083681;28;20215;-81
2023/08/04 10:47:32;;;;;;;2.17;1.02;;;;;;;21.02;64.81;100451.06;5082459;28;20211;-81
2023/08/04 10:50:00;;;;;;;3.85;1.33;;;;;;;21.13;63.87;100450.72;5084232;28;20210;-83
2023/08/04 10:52:27;;;;;;;4.72;1.45;;;;;;;21.24;63.91;100452.25;5083695;28;20204;-81
2023/08/04 10:54:54;;;;;;;2.35;1.38;;;;;;;21.24;63.21;100457.69;5085005;28;20239;-82
2023/08/04 10:57:21;;;;;;;2.92;1.30;;;;;;;21.26;63.95;100459.22;5088030;28;20605;-81
2023/08/04 10:59:48;;;;;;;3.40;1.85;;;;;;;21.23;62.85;100454.13;5085743;28;20201;-81
2023/08/04 11:02:18;;;;;;;2.88;1.45;;;;;;;21.19;62.28;100462.72;5095345;28;20206;-83
2023/08/04 11:04:45;;;;;;;1.92;1.20;;;;;;;21.13;61.45;100462.41;5085620;28;20191;-81
2023/08/04 11:07:12;;;;;;;3.50;1.13;;;;;;;21.10;61.88;100465.44;5091611;28;20668;-82
2023/08/04 11:09:39;;;;;;;3.92;1.25;;;;;;;21.13;61.80;100466.97;5090028;28;20201;-81
2023/08/04 11:12:07;;;;;;;1.90;1.25;;;;;;;21.11;61.10;100459.03;5092702;28;20208;-80
2023/08/04 11:14:34;;;;;;;2.25;1.13;;;;;;;21.11;60.38;100464.44;5083691;28;20200;-81
2023/08/04 11:17:01;;;;;;;3.00;1.10;;;;;;;21.08;60.49;100463.94;5090540;28;20208;-81
2023/08/04 11:19:30;;;;;;;2.47;1.30;;;;;;;21.13;63.22;100462.41;5080119;28;20211;-81